Time;durP1;ratioP1;P1;durP2;ratioP2;P2;SDS_P1;SDS_P2;PMS_P1;PMS_P2;Temp;Humidity;BMP_temperature;BMP_pressure;BME280_temperature;BME280_humidity;BME280_pressure;Samples;Min_cycle;Max_cycle;Signal;HPM_P1;HPM_P2
2020/12/05 00:02:10;;;;;;;9.43;4.80;;;2.30;99.90;;;;;;5066096;28;20103;-66
2020/12/05 00:04:35;;;;;;;11.30;4.88;;;2.30;99.90;;;;;;5068527;28;20398;-65
2020/12/05 00:07:01;;;;;;;10.75;4.80;;;2.30;99.90;;;;;;5068540;28;20036;-66
2020/12/05 00:09:26;;;;;;;8.90;4.07;;;2.30;99.90;;;;;;5051084;28;20244;-66
2020/12/05 00:11:52;;;;;;;8.30;4.03;;;2.30;99.90;;;;;;5065766;28;20036;-67
2020/12/05 00:14:17;;;;;;;6.43;4.22;;;2.30;99.90;;;;;;5063664;28;20128;-66
2020/12/05 00:16:43;;;;;;;14.45;5.05;;;2.30;99.90;;;;;;5071247;28;20024;-64
2020/12/05 00:19:11;;;;;;;9.45;4.47;;;2.40;99.90;;;;;;5063366;28;20032;-65
2020/12/05 00:21:36;;;;;;;12.82;5.13;;;2.40;99.90;;;;;;5068251;28;20032;-66
2020/12/05 00:24:02;;;;;;;7.72;4.47;;;2.40;99.90;;;;;;5064765;28;20128;-66
2020/12/05 00:26:27;;;;;;;7.97;4.85;;;2.40;99.90;;;;;;5068160;28;20036;-66
2020/12/05 00:28:53;;;;;;;10.70;4.85;;;2.30;99.90;;;;;;5068118;28;20066;-66
2020/12/05 00:31:20;;;;;;;15.95;5.13;;;2.40;99.90;;;;;;5063458;28;20029;-65
2020/12/05 00:33:46;;;;;;;10.73;4.72;;;2.40;99.90;;;;;;5072504;28;20032;-66
2020/12/05 00:36:15;;;;;;;10.43;4.88;;;2.40;99.90;;;;;;5056830;28;20024;-66
2020/12/05 00:38:41;;;;;;;8.88;4.82;;;2.30;99.90;;;;;;5069071;28;20110;-65
2020/12/05 00:41:07;;;;;;;10.93;4.68;;;2.30;99.90;;;;;;5068921;28;20111;-65
2020/12/05 00:43:34;;;;;;;10.82;4.97;;;2.20;99.90;;;;;;5070706;28;20085;-65
2020/12/05 00:46:01;;;;;;;9.65;4.68;;;2.30;99.90;;;;;;5060893;28;20035;-64
2020/12/05 00:48:27;;;;;;;12.05;4.95;;;2.30;99.90;;;;;;5053659;28;20016;-66
2020/12/05 00:50:52;;;;;;;12.20;5.05;;;2.20;99.90;;;;;;5058382;28;20523;-66
2020/12/05 00:53:18;;;;;;;8.65;5.13;;;2.20;99.90;;;;;;5059028;28;20025;-66
2020/12/05 00:55:47;;;;;;;10.25;4.65;;;2.20;99.90;;;;;;5060965;28;20111;-65
2020/12/05 00:58:13;;;;;;;10.88;4.57;;;2.30;99.90;;;;;;5055104;28;20031;-65
2020/12/05 01:00:39;;;;;;;10.00;4.88;;;2.30;99.90;;;;;;5051793;28;20113;-65
2020/12/05 01:03:05;;;;;;;10.68;4.95;;;2.30;99.90;;;;;;5059385;28;20028;-65
2020/12/05 01:05:32;;;;;;;10.63;4.15;;;2.20;99.90;;;;;;5051615;28;20628;-65
2020/12/05 01:08:04;;;;;;;6.68;4.57;;;2.30;99.90;;;;;;5055385;28;20481;-66
2020/12/05 01:10:29;;;;;;;12.25;5.13;;;2.30;99.90;;;;;;5046604;28;20036;-64
2020/12/05 01:12:55;;;;;;;11.93;4.90;;;2.20;99.90;;;;;;5053316;28;20139;-66
2020/12/05 01:15:20;;;;;;;11.73;4.95;;;2.10;99.90;;;;;;5056560;28;20032;-66
2020/12/05 01:17:46;;;;;;;9.77;5.55;;;2.10;99.90;;;;;;5059670;28;20104;-65
2020/12/05 01:20:12;;;;;;;10.43;5.43;;;2.00;99.90;;;;;;5067833;28;20100;-66
2020/12/05 01:22:37;;;;;;;9.75;5.50;;;2.10;99.90;;;;;;5070037;28;20411;-65
2020/12/05 01:25:03;;;;;;;11.65;5.22;;;2.00;99.90;;;;;;5070694;28;20047;-66
2020/12/05 01:27:29;;;;;;;8.13;4.68;;;2.00;99.90;;;;;;5050546;28;20161;-65
2020/12/05 01:29:54;;;;;;;12.18;5.05;;;2.00;99.90;;;;;;5060622;28;20124;-66
2020/12/05 01:32:20;;;;;;;11.57;5.03;;;2.00;99.90;;;;;;5056582;28;20974;-65
2020/12/05 01:34:45;;;;;;;11.35;6.03;;;2.00;99.90;;;;;;5052023;28;20021;-66
2020/12/05 01:37:11;;;;;;;11.10;5.80;;;1.90;99.90;;;;;;5054475;28;20036;-66
2020/12/05 01:39:37;;;;;;;10.48;5.15;;;1.90;99.90;;;;;;5055845;28;20031;-67
2020/12/05 01:42:04;;;;;;;13.95;5.70;;;2.00;99.90;;;;;;5042654;28;20025;-65
2020/12/05 01:44:31;;;;;;;15.07;6.00;;;1.90;99.90;;;;;;5046122;28;20029;-66
2020/12/05 01:46:57;;;;;;;7.68;4.85;;;1.90;99.90;;;;;;5064405;28;20113;-66
2020/12/05 01:49:22;;;;;;;8.43;5.40;;;1.90;99.90;;;;;;5065760;28;20029;-65
2020/12/05 01:51:49;;;;;;;15.88;6.25;;;1.90;99.90;;;;;;5034038;28;20060;-66
2020/12/05 01:54:14;;;;;;;13.43;6.07;;;1.90;99.90;;;;;;5062123;28;20028;-65
2020/12/05 01:56:43;;;;;;;13.32;6.47;;;1.80;99.90;;;;;;5059819;28;20032;-65
2020/12/05 01:59:09;;;;;;;9.30;5.60;;;1.80;99.90;;;;;;5066905;28;20020;-66
2020/12/05 02:01:36;;;;;;;14.95;6.20;;;1.80;99.90;;;;;;5066436;28;20083;-66
2020/12/05 02:04:02;;;;;;;13.27;5.35;;;1.70;99.90;;;;;;5051712;28;20055;-65
2020/12/05 02:06:36;;;;;;;10.60;6.07;;;1.80;99.90;;;;;;5061990;28;20515;-66
2020/12/05 02:09:20;;;;;;;12.30;5.93;;;1.80;99.90;;;;;;5047305;28;20028;-66
2020/12/05 02:11:57;;;;;;;13.02;6.32;;;1.80;99.90;;;;;;5066597;28;20112;-65
2020/12/05 02:14:26;;;;;;;11.93;6.18;;;1.70;99.90;;;;;;5019473;28;20079;-66
2020/12/05 02:16:54;;;;;;;13.63;5.68;;;1.70;99.90;;;;;;5032146;28;20020;-64
2020/12/05 02:19:22;;;;;;;9.95;6.60;;;1.70;99.90;;;;;;5063112;28;20445;-66
2020/12/05 02:21:53;;;;;;;12.60;6.82;;;1.80;99.90;;;;;;5065821;28;20021;-65
2020/12/05 02:24:18;;;;;;;13.73;6.80;;;1.70;99.90;;;;;;5064973;28;20013;-66
2020/12/05 02:26:44;;;;;;;16.27;6.57;;;1.70;99.90;;;;;;5061304;28;20360;-65
2020/12/05 02:29:10;;;;;;;13.77;6.13;;;1.70;99.90;;;;;;5058955;28;20021;-65
2020/12/05 02:31:37;;;;;;;9.25;6.40;;;1.70;99.90;;;;;;5067521;28;20021;-64
2020/12/05 02:34:04;;;;;;;12.43;6.88;;;1.80;99.90;;;;;;5066168;28;20035;-65
2020/12/05 02:36:35;;;;;;;12.35;6.65;;;1.80;99.90;;;;;;5064394;28;20054;-65
2020/12/05 02:39:10;;;;;;;12.27;6.32;;;1.80;99.90;;;;;;5042627;28;20032;-64
2020/12/05 02:41:40;;;;;;;10.27;6.88;;;1.80;99.90;;;;;;5067517;28;20066;-64
2020/12/05 02:44:06;;;;;;;11.13;6.57;;;1.70;99.90;;;;;;5057184;28;20096;-65
2020/12/05 02:46:33;;;;;;;12.98;5.88;;;1.70;99.90;;;;;;5063010;28;20047;-65
2020/12/05 02:48:59;;;;;;;17.13;6.60;;;1.80;99.90;;;;;;5051739;28;20092;-66
2020/12/05 02:51:25;;;;;;;14.13;7.07;;;1.80;99.90;;;;;;5059740;28;20040;-65
2020/12/05 02:53:50;;;;;;;16.98;7.10;;;1.70;99.90;;;;;;5074170;28;20029;-65
2020/12/05 02:56:19;;;;;;;11.38;6.93;;;1.70;99.90;;;;;;5072765;28;20028;-66
2020/12/05 02:58:45;;;;;;;13.32;6.45;;;1.70;99.90;;;;;;5063097;28;20432;-66
2020/12/05 03:01:11;;;;;;;14.63;6.97;;;1.70;99.90;;;;;;5059351;28;20044;-65
2020/12/05 03:03:37;;;;;;;12.75;7.15;;;1.70;99.90;;;;;;5075384;28;20024;-66
2020/12/05 03:06:03;;;;;;;9.95;6.85;;;1.60;99.90;;;;;;5074395;28;20052;-66
2020/12/05 03:08:29;;;;;;;11.27;6.75;;;1.50;99.90;;;;;;5065234;28;20094;-65
2020/12/05 03:10:54;;;;;;;14.93;6.80;;;1.50;99.90;;;;;;5069797;28;20046;-65
2020/12/05 03:13:20;;;;;;;11.25;6.80;;;1.50;99.90;;;;;;5070530;28;20021;-65
2020/12/05 03:15:45;;;;;;;14.43;7.75;;;1.50;99.90;;;;;;5069831;28;20060;-66
2020/12/05 03:18:11;;;;;;;10.32;7.43;;;1.50;99.90;;;;;;5072110;28;20497;-66
2020/12/05 03:20:36;;;;;;;14.82;7.65;;;1.50;99.90;;;;;;5073182;28;20066;-65
2020/12/05 03:23:02;;;;;;;16.52;7.25;;;1.50;99.90;;;;;;5068126;28;20032;-65
2020/12/05 03:25:28;;;;;;;8.85;6.85;;;1.50;99.90;;;;;;5071274;28;20012;-65
2020/12/05 03:27:53;;;;;;;11.00;7.43;;;1.50;99.90;;;;;;5071725;28;20450;-65
2020/12/05 03:30:18;;;;;;;10.80;7.53;;;1.50;99.90;;;;;;5070040;28;20441;-65
2020/12/05 03:32:45;;;;;;;12.75;7.25;;;1.50;99.90;;;;;;5076459;28;20029;-65
2020/12/05 03:35:10;;;;;;;12.85;7.38;;;1.50;99.90;;;;;;5076241;28;20021;-66
2020/12/05 03:37:36;;;;;;;14.10;7.70;;;1.50;99.90;;;;;;5072477;28;20346;-65
2020/12/05 03:40:03;;;;;;;8.82;6.43;;;1.50;99.90;;;;;;5068798;28;20039;-65
2020/12/05 03:42:29;;;;;;;15.20;7.72;;;1.50;99.90;;;;;;5066015;28;20017;-66
2020/12/05 03:44:55;;;;;;;14.45;6.82;;;1.60;99.90;;;;;;5046399;28;20039;-66
2020/12/05 03:47:20;;;;;;;10.73;6.65;;;1.50;99.90;;;;;;5069380;28;20447;-65
2020/12/05 03:49:46;;;;;;;14.80;7.18;;;1.50;99.90;;;;;;5048563;28;20036;-65
2020/12/05 03:52:11;;;;;;;12.68;7.07;;;1.50;99.90;;;;;;5065289;28;20071;-65
2020/12/05 03:54:37;;;;;;;12.50;7.90;;;1.40;99.90;;;;;;5072119;28;20049;-65
2020/12/05 03:57:02;;;;;;;14.10;8.07;;;1.50;99.90;;;;;;5071490;28;20081;-65
2020/12/05 03:59:28;;;;;;;12.20;8.43;;;1.40;99.90;;;;;;5053614;28;20052;-65
2020/12/05 04:01:54;;;;;;;17.17;8.23;;;1.40;99.90;;;;;;5072483;28;20025;-66
2020/12/05 04:04:19;;;;;;;14.75;8.05;;;1.40;99.90;;;;;;5064005;28;20031;-65
2020/12/05 04:06:45;;;;;;;12.45;8.10;;;1.40;99.90;;;;;;5072595;28;20056;-65
2020/12/05 04:09:10;;;;;;;16.77;8.65;;;1.40;99.90;;;;;;5073500;28;20135;-65
2020/12/05 04:11:38;;;;;;;16.05;8.25;;;1.40;99.90;;;;;;5067602;28;20033;-65
2020/12/05 04:14:04;;;;;;;13.25;7.70;;;1.50;99.90;;;;;;5063083;28;20286;-66
2020/12/05 04:16:30;;;;;;;16.35;8.00;;;1.50;99.90;;;;;;5071365;28;20035;-66
2020/12/05 04:18:56;;;;;;;10.50;7.75;;;1.50;99.90;;;;;;5074263;28;20028;-66
2020/12/05 04:21:21;;;;;;;11.65;8.20;;;1.50;99.90;;;;;;5075146;28;20094;-66
2020/12/05 04:23:47;;;;;;;11.55;7.95;;;1.50;99.90;;;;;;5077204;28;20028;-65
2020/12/05 04:26:12;;;;;;;17.40;8.07;;;1.50;99.90;;;;;;5081287;28;20074;-65
2020/12/05 04:28:38;;;;;;;16.08;8.23;;;1.50;99.90;;;;;;5073280;28;20458;-66
2020/12/05 04:31:03;;;;;;;13.05;8.00;;;1.50;99.90;;;;;;5070778;28;20032;-66
2020/12/05 04:33:29;;;;;;;11.55;7.45;;;1.50;99.90;;;;;;5072647;28;20032;-65
2020/12/05 04:35:54;;;;;;;15.07;7.78;;;1.50;99.90;;;;;;5072544;28;20044;-66
2020/12/05 04:38:20;;;;;;;14.85;8.00;;;1.50;99.90;;;;;;5067531;28;20032;-65
2020/12/05 04:40:47;;;;;;;11.38;7.60;;;1.50;99.90;;;;;;5063920;28;20498;-65
2020/12/05 04:43:13;;;;;;;14.60;7.88;;;1.50;99.90;;;;;;5071712;28;20029;-68
2020/12/05 04:45:39;;;;;;;11.13;7.07;;;1.40;99.90;;;;;;5072157;28;20074;-67
2020/12/05 04:48:06;;;;;;;11.40;8.27;;;1.50;99.90;;;;;;5063684;28;20306;-65
2020/12/05 04:50:35;;;;;;;12.73;7.10;;;1.50;99.90;;;;;;5068657;28;20095;-65
2020/12/05 04:53:11;;;;;;;15.77;7.10;;;1.50;99.90;;;;;;5044322;28;20025;-65
2020/12/05 04:55:41;;;;;;;12.68;7.63;;;1.50;99.90;;;;;;5059045;28;20043;-65
2020/12/05 04:58:21;;;;;;;13.93;7.70;;;1.50;99.90;;;;;;5059010;28;20120;-66
2020/12/05 05:00:52;;;;;;;13.15;7.20;;;1.60;99.90;;;;;;5057907;28;20072;-65
2020/12/05 05:03:21;;;;;;;13.57;7.15;;;1.50;99.90;;;;;;5062580;28;20505;-66
2020/12/05 05:05:47;;;;;;;12.20;6.80;;;1.50;99.90;;;;;;5067638;22;20519;-61
2020/12/05 05:08:15;;;;;;;10.70;6.78;;;1.50;99.90;;;;;;5030157;28;20017;-61
2020/12/05 05:10:41;;;;;;;11.00;7.13;;;1.60;99.90;;;;;;5031243;28;20108;-61
2020/12/05 05:13:17;;;;;;;13.13;7.20;;;1.60;99.90;;;;;;5030902;28;20546;-60
2020/12/05 05:15:43;;;;;;;10.65;6.85;;;1.70;99.90;;;;;;5031810;28;20074;-60
2020/12/05 05:18:10;;;;;;;12.43;7.10;;;1.70;99.90;;;;;;5019418;28;20136;-60
2020/12/05 05:20:45;;;;;;;12.80;7.13;;;1.70;99.90;;;;;;5017578;28;20052;-60
2020/12/05 05:23:14;;;;;;;12.95;7.00;;;1.70;99.90;;;;;;5025608;28;20063;-60
2020/12/05 05:25:48;;;;;;;9.32;6.57;;;1.70;99.90;;;;;;5004450;28;20032;-60
2020/12/05 05:28:24;;;;;;;12.23;7.20;;;1.70;99.90;;;;;;5034014;28;20507;-61
2020/12/05 05:31:00;;;;;;;8.63;6.50;;;1.70;99.90;;;;;;5024890;28;20460;-61
2020/12/05 05:33:26;;;;;;;9.25;6.82;;;1.80;99.90;;;;;;5026721;28;20021;-60
2020/12/05 05:35:52;;;;;;;11.93;7.00;;;1.80;99.90;;;;;;5026110;28;20033;-61
2020/12/05 05:38:22;;;;;;;12.07;7.57;;;1.80;99.90;;;;;;5039943;28;20099;-62
2020/12/05 05:40:49;;;;;;;11.23;7.85;;;1.80;99.90;;;;;;5035039;28;20025;-61
2020/12/05 05:43:20;;;;;;;13.95;7.15;;;1.70;99.90;;;;;;5027396;28;20033;-61
2020/12/05 05:45:48;;;;;;;15.85;7.65;;;1.70;99.90;;;;;;5055611;28;20021;-61
2020/12/05 05:48:14;;;;;;;10.60;7.47;;;1.80;99.90;;;;;;5039960;28;20033;-61
2020/12/05 05:50:40;;;;;;;13.35;6.65;;;1.80;99.90;;;;;;5027818;28;20084;-60
2020/12/05 05:53:10;;;;;;;13.13;7.50;;;1.90;99.90;;;;;;5028197;28;20025;-60
2020/12/05 05:55:42;;;;;;;12.02;7.70;;;1.90;99.90;;;;;;5032664;28;20023;-61
2020/12/05 05:58:08;;;;;;;11.18;6.90;;;1.90;99.90;;;;;;5006480;28;20033;-60
2020/12/05 06:00:37;;;;;;;15.85;7.82;;;1.90;99.90;;;;;;5016269;28;20619;-61
2020/12/05 06:03:14;;;;;;;13.32;7.93;;;1.90;99.90;;;;;;5012638;28;20022;-61
2020/12/05 06:05:44;;;;;;;15.70;7.03;;;1.80;99.90;;;;;;5016136;28;20044;-62
2020/12/05 06:08:16;;;;;;;12.27;7.28;;;1.90;99.90;;;;;;5026438;28;20460;-60
2020/12/05 06:10:45;;;;;;;12.90;6.72;;;1.90;99.90;;;;;;5025149;28;20049;-60
2020/12/05 06:13:13;;;;;;;10.65;6.47;;;2.00;99.90;;;;;;5022613;28;20121;-61
2020/12/05 06:15:39;;;;;;;10.02;6.35;;;2.10;99.90;;;;;;5017892;28;20060;-61
2020/12/05 06:18:06;;;;;;;12.80;6.22;;;2.20;99.90;;;;;;5024802;28;20129;-60
2020/12/05 06:20:36;;;;;;;9.48;6.03;;;2.20;99.90;;;;;;5021232;28;20472;-60
2020/12/05 06:23:03;;;;;;;8.40;6.18;;;2.20;99.90;;;;;;4998598;28;20022;-60
2020/12/05 06:25:30;;;;;;;14.35;7.10;;;2.30;99.90;;;;;;5024649;28;20070;-60
2020/12/05 06:28:06;;;;;;;11.00;6.03;;;2.30;99.90;;;;;;5025973;28;20029;-61
2020/12/05 06:30:31;;;;;;;18.10;7.15;;;2.30;99.90;;;;;;5024576;28;20033;-61
2020/12/05 06:32:57;;;;;;;13.57;6.85;;;2.20;99.90;;;;;;5032446;28;20487;-61
2020/12/05 06:35:22;;;;;;;12.13;6.50;;;2.30;99.90;;;;;;5036897;28;20026;-61
2020/12/05 06:37:53;;;;;;;12.57;6.35;;;2.30;99.90;;;;;;5035928;28;20025;-61
2020/12/05 06:40:20;;;;;;;14.15;7.55;;;2.30;99.90;;;;;;5013933;28;20045;-61
2020/12/05 06:42:47;;;;;;;10.52;7.07;;;2.30;99.90;;;;;;5029564;28;20483;-61
2020/12/05 06:45:42;;;;;;;14.50;7.93;;;2.30;99.90;;;;;;5025484;28;20391;-61
2020/12/05 06:48:08;;;;;;;12.82;7.03;;;2.40;99.90;;;;;;5002723;28;20503;-61
2020/12/05 06:50:38;;;;;;;10.80;7.07;;;2.40;99.90;;;;;;5034088;28;20029;-62
2020/12/05 06:53:19;;;;;;;13.80;7.68;;;2.50;99.90;;;;;;5019273;28;20109;-61
2020/12/05 06:55:45;;;;;;;13.60;7.65;;;2.60;99.90;;;;;;5014794;28;20033;-61
2020/12/05 06:58:10;;;;;;;14.25;7.22;;;2.50;99.90;;;;;;5027541;28;20101;-61
2020/12/05 07:00:37;;;;;;;11.18;7.00;;;2.60;99.90;;;;;;5030017;28;20026;-61
2020/12/05 07:03:08;;;;;;;14.32;7.88;;;2.60;99.90;;;;;;5035642;28;20018;-61
2020/12/05 07:05:46;;;;;;;13.20;7.30;;;2.50;99.90;;;;;;5030044;28;20099;-61
2020/12/05 07:08:29;;;;;;;12.95;6.57;;;2.60;99.90;;;;;;5029167;28;20518;-60
2020/12/05 07:11:00;;;;;;;16.50;8.18;;;2.60;99.90;;;;;;5032985;28;20029;-61
2020/12/05 07:13:28;;;;;;;13.73;9.55;;;2.60;99.90;;;;;;5020086;28;20280;-60
2020/12/05 07:16:15;;;;;;;13.10;7.55;;;2.50;99.90;;;;;;5033954;28;20029;-61
2020/12/05 07:18:48;;;;;;;12.80;7.78;;;2.60;99.90;;;;;;5033764;28;20109;-60
2020/12/05 07:21:15;;;;;;;14.63;8.45;;;2.50;99.90;;;;;;5036914;28;20021;-60
2020/12/05 07:23:41;;;;;;;15.40;9.02;;;2.50;99.90;;;;;;5034598;28;20032;-61
2020/12/05 07:26:07;;;;;;;16.38;8.38;;;2.50;99.90;;;;;;5033912;28;20066;-61
2020/12/05 07:28:34;;;;;;;19.35;9.13;;;2.40;99.90;;;;;;5016004;28;20037;-60
2020/12/05 07:31:00;;;;;;;16.40;8.45;;;2.50;99.90;;;;;;5020276;28;20120;-60
2020/12/05 07:33:27;;;;;;;16.15;8.70;;;2.50;99.90;;;;;;5026525;28;20026;-61
2020/12/05 07:35:57;;;;;;;19.88;8.32;;;2.50;99.90;;;;;;5028959;28;20392;-62
2020/12/05 07:38:23;;;;;;;17.50;9.57;;;2.60;99.90;;;;;;5027184;28;20059;-61
2020/12/05 07:40:48;;;;;;;15.30;9.20;;;2.60;99.90;;;;;;5032341;28;20120;-60
2020/12/05 07:43:16;;;;;;;17.38;9.10;;;2.60;99.90;;;;;;5035699;28;20033;-62
2020/12/05 07:45:42;;;;;;;19.73;8.65;;;2.60;99.90;;;;;;5047704;28;20025;-62
2020/12/05 07:48:13;;;;;;;15.02;9.13;;;2.70;99.90;;;;;;5029798;28;20484;-62
2020/12/05 07:50:39;;;;;;;17.85;9.02;;;2.80;99.90;;;;;;5033790;28;21246;-61
2020/12/05 07:53:04;;;;;;;15.13;9.32;;;2.90;99.90;;;;;;5012900;28;20444;-60
2020/12/05 07:55:30;;;;;;;19.58;10.32;;;2.90;99.90;;;;;;5029045;28;20021;-60
2020/12/05 07:57:56;;;;;;;18.20;10.27;;;2.80;99.90;;;;;;5027561;28;20021;-61
2020/12/05 08:00:22;;;;;;;19.55;9.90;;;2.80;99.90;;;;;;5031354;28;20013;-62
2020/12/05 08:03:18;;;;;;;19.10;9.45;;;2.80;99.90;;;;;;5029957;28;20022;-61
2020/12/05 08:05:53;;;;;;;13.63;9.15;;;2.80;99.90;;;;;;5020942;28;20615;-61
2020/12/05 08:08:19;;;;;;;16.80;10.07;;;2.80;99.90;;;;;;4998126;28;20061;-61
2020/12/05 08:10:45;;;;;;;13.43;8.73;;;2.80;99.90;;;;;;5011187;28;20525;-61
2020/12/05 08:13:26;;;;;;;15.32;8.95;;;2.80;99.90;;;;;;5033696;28;20472;-60
2020/12/05 08:16:01;;;;;;;15.13;8.55;;;2.80;99.90;;;;;;5023348;28;20040;-61
2020/12/05 08:18:28;;;;;;;16.70;9.10;;;2.80;99.90;;;;;;5018331;28;20029;-60
2020/12/05 08:20:54;;;;;;;18.85;9.32;;;2.80;99.90;;;;;;5041110;28;20108;-61
2020/12/05 08:23:29;;;;;;;14.32;9.70;;;2.80;99.90;;;;;;5032661;28;20126;-61
2020/12/05 08:25:58;;;;;;;14.30;8.68;;;2.90;99.90;;;;;;5013246;28;20453;-61
2020/12/05 08:28:25;;;;;;;16.80;10.00;;;2.90;99.90;;;;;;5026360;28;20086;-61
2020/12/05 08:30:53;;;;;;;15.07;9.32;;;3.10;99.90;;;;;;5020570;28;20112;-62
2020/12/05 08:33:19;;;;;;;19.60;9.73;;;3.10;99.90;;;;;;5025087;28;20030;-61
2020/12/05 08:35:44;;;;;;;16.98;9.20;;;3.10;99.90;;;;;;5025362;28;20442;-60
2020/12/05 08:38:14;;;;;;;17.42;10.30;;;3.10;99.90;;;;;;5025253;28;20033;-61
2020/12/05 08:40:40;;;;;;;17.08;9.25;;;3.20;99.90;;;;;;5038319;28;20093;-61
2020/12/05 08:43:06;;;;;;;16.65;9.75;;;3.20;99.90;;;;;;5027660;28;20029;-61
2020/12/05 08:45:37;;;;;;;16.65;9.35;;;3.20;99.90;;;;;;5028006;28;20498;-60
2020/12/05 08:48:03;;;;;;;15.80;9.35;;;3.20;99.90;;;;;;5026970;28;20075;-61
2020/12/05 08:50:32;;;;;;;16.48;9.38;;;3.30;99.90;;;;;;5026441;28;20038;-61
2020/12/05 08:53:00;;;;;;;14.98;9.20;;;3.30;99.90;;;;;;4997516;28;20022;-62
2020/12/05 08:55:30;;;;;;;17.23;8.30;;;3.40;99.90;;;;;;5025986;28;20514;-62
2020/12/05 08:58:00;;;;;;;14.20;8.65;;;3.40;99.90;;;;;;5022134;28;20113;-61
2020/12/05 09:00:27;;;;;;;15.75;9.52;;;3.40;99.90;;;;;;5026178;28;20624;-61
2020/12/05 09:02:53;;;;;;;14.38;9.13;;;3.50;99.90;;;;;;5032092;28;20029;-61
2020/12/05 09:05:19;;;;;;;12.10;8.13;;;3.50;99.90;;;;;;5032496;28;20079;-60
2020/12/05 09:08:00;;;;;;;14.90;8.48;;;3.60;99.90;;;;;;5027427;28;20029;-61
2020/12/05 09:10:27;;;;;;;12.82;8.02;;;3.60;99.90;;;;;;5028078;28;20025;-61
2020/12/05 09:13:03;;;;;;;14.52;8.18;;;3.70;99.90;;;;;;5028986;28;20510;-61
2020/12/05 09:15:30;;;;;;;13.80;8.25;;;3.70;99.90;;;;;;5027310;28;20032;-62
2020/12/05 09:17:56;;;;;;;10.07;7.13;;;3.70;99.90;;;;;;5017713;28;20069;-61
2020/12/05 09:20:22;;;;;;;9.73;6.65;;;3.70;99.90;;;;;;5023835;28;20032;-61
2020/12/05 09:22:53;;;;;;;16.27;7.85;;;3.80;99.90;;;;;;5027374;28;20030;-62
2020/12/05 09:25:31;;;;;;;10.27;7.15;;;3.80;99.90;;;;;;5029870;28;20022;-60
2020/12/05 09:27:58;;;;;;;12.65;7.30;;;3.80;99.90;;;;;;5003837;28;20137;-60
2020/12/05 09:30:25;;;;;;;8.95;6.47;;;3.70;99.90;;;;;;5014842;28;20386;-62
2020/12/05 09:32:52;;;;;;;12.77;7.20;;;3.80;99.90;;;;;;5021545;28;20395;-60
2020/12/05 09:35:19;;;;;;;11.27;7.45;;;3.80;99.90;;;;;;5027391;28;20014;-61
2020/12/05 09:37:46;;;;;;;11.93;6.85;;;3.90;99.90;;;;;;5023503;28;20027;-61
2020/12/05 09:40:15;;;;;;;11.00;6.45;;;3.90;99.90;;;;;;5018413;28;20045;-61
2020/12/05 09:42:42;;;;;;;10.70;6.40;;;4.00;99.90;;;;;;5043587;28;20075;-61
2020/12/05 09:45:10;;;;;;;13.30;6.70;;;4.00;99.90;;;;;;5032755;28;20013;-62
2020/12/05 09:47:36;;;;;;;14.25;6.78;;;4.00;99.90;;;;;;5014362;28;20025;-61
2020/12/05 09:50:02;;;;;;;13.35;6.43;;;4.10;99.90;;;;;;5016241;28;20029;-61
2020/12/05 09:52:27;;;;;;;7.75;5.60;;;4.10;99.90;;;;;;5018472;28;20041;-61
2020/12/05 09:54:53;;;;;;;12.63;6.28;;;4.10;99.90;;;;;;5015230;28;20037;-61
2020/12/05 09:57:19;;;;;;;12.43;5.40;;;4.20;99.90;;;;;;5014045;28;20085;-61
2020/12/05 09:59:45;;;;;;;11.15;6.07;;;4.20;99.90;;;;;;5015845;28;20033;-63
2020/12/05 10:02:12;;;;;;;11.23;6.22;;;4.30;99.90;;;;;;5036353;28;20022;-60
2020/12/05 10:04:38;;;;;;;11.02;5.90;;;4.40;99.90;;;;;;5022917;28;20022;-62
2020/12/05 10:07:04;;;;;;;8.07;5.63;;;4.50;99.90;;;;;;5027739;28;20108;-62
2020/12/05 10:09:29;;;;;;;9.73;5.07;;;4.60;99.90;;;;;;5024543;28;20076;-60
2020/12/05 10:11:55;;;;;;;5.72;4.28;;;4.60;99.90;;;;;;5023003;28;20034;-61
2020/12/05 10:14:21;;;;;;;6.32;4.68;;;4.60;99.90;;;;;;5021908;28;20109;-61
2020/12/05 10:16:46;;;;;;;6.93;4.45;;;4.60;99.90;;;;;;5030268;28;20033;-61
2020/12/05 10:19:12;;;;;;;9.27;4.45;;;4.60;99.90;;;;;;5031065;28;20116;-61
2020/12/05 10:21:37;;;;;;;8.05;4.43;;;4.60;99.90;;;;;;5032019;28;20029;-60
2020/12/05 10:24:03;;;;;;;8.52;4.20;;;4.70;99.90;;;;;;5027218;28;20033;-61
2020/12/05 10:26:29;;;;;;;5.65;3.78;;;4.70;99.90;;;;;;5044120;28;20483;-61
2020/12/05 10:28:54;;;;;;;12.25;4.78;;;4.80;99.90;;;;;;5032783;28;20086;-61
2020/12/05 10:31:20;;;;;;;9.25;3.95;;;4.90;99.90;;;;;;5043112;28;20166;-61
2020/12/05 10:33:45;;;;;;;7.20;4.40;;;4.90;99.90;;;;;;5019591;28;20112;-60
2020/12/05 10:36:11;;;;;;;7.03;3.40;;;5.00;99.90;;;;;;5026052;28;20479;-60
2020/12/05 10:38:37;;;;;;;9.88;3.85;;;5.00;99.90;;;;;;5029178;28;20025;-60
2020/12/05 10:41:02;;;;;;;8.45;4.03;;;5.00;99.90;;;;;;5027110;28;20053;-61
2020/12/05 10:43:28;;;;;;;4.28;3.72;;;5.00;99.90;;;;;;5012576;28;20033;-61
2020/12/05 10:45:53;;;;;;;7.60;3.85;;;5.00;99.90;;;;;;5035055;28;20025;-60
2020/12/05 10:48:19;;;;;;;8.88;3.50;;;5.00;99.90;;;;;;5033776;28;20025;-61
2020/12/05 10:50:44;;;;;;;6.20;3.25;;;5.00;99.90;;;;;;5031055;28;20088;-60
2020/12/05 10:53:10;;;;;;;5.82;3.63;;;5.00;99.90;;;;;;5034416;28;20570;-61
2020/12/05 10:55:35;;;;;;;8.05;3.28;;;5.10;99.90;;;;;;5002388;28;20052;-61
2020/12/05 10:58:01;;;;;;;10.95;3.45;;;5.10;99.90;;;;;;5013847;28;20484;-61
2020/12/05 11:00:27;;;;;;;5.05;2.67;;;5.20;99.90;;;;;;5032404;28;20021;-61
2020/12/05 11:02:52;;;;;;;7.40;3.67;;;5.30;99.90;;;;;;5030529;28;20087;-62
2020/12/05 11:05:18;;;;;;;7.05;3.55;;;5.30;99.90;;;;;;5010221;23;20486;-71
2020/12/05 11:07:43;;;;;;;5.90;3.03;;;5.30;99.90;;;;;;5073573;22;20131;-64
2020/12/05 11:10:09;;;;;;;6.03;3.33;;;5.40;99.90;;;;;;5044407;28;20016;-65
2020/12/05 11:12:34;;;;;;;5.72;3.67;;;5.50;99.90;;;;;;5063410;28;20021;-70
2020/12/05 11:15:00;;;;;;;7.68;3.83;;;5.50;99.90;;;;;;5047139;28;20029;-66
2020/12/05 11:17:26;;;;;;;5.47;2.72;;;5.50;99.90;;;;;;5050608;28;20025;-67
2020/12/05 11:19:51;;;;;;;4.68;2.95;;;5.70;99.90;;;;;;5064630;28;20361;-65
2020/12/05 11:22:17;;;;;;;7.43;4.20;;;5.80;99.90;;;;;;5054952;28;20087;-68
2020/12/05 11:24:43;;;;;;;8.18;3.53;;;6.20;99.90;;;;;;5063665;28;20089;-68
2020/12/05 11:27:08;;;;;;;4.10;2.97;;;6.70;99.90;;;;;;5064495;28;20036;-67
2020/12/05 11:29:34;;;;;;;8.70;3.85;;;6.90;99.90;;;;;;5062550;28;20059;-67
2020/12/05 11:31:59;;;;;;;5.00;2.75;;;7.20;99.90;;;;;;5068028;28;20533;-67
2020/12/05 11:34:25;;;;;;;5.70;3.00;;;7.40;99.90;;;;;;5065542;28;20055;-68
2020/12/05 11:36:51;;;;;;;6.70;3.28;;;7.40;99.90;;;;;;5065170;28;20045;-67
2020/12/05 11:39:16;;;;;;;4.03;2.78;;;7.30;99.90;;;;;;5048050;28;20359;-66
2020/12/05 11:41:42;;;;;;;5.47;2.70;;;7.00;99.90;;;;;;5061271;28;20029;-69
2020/12/05 11:44:08;;;;;;;5.45;2.95;;;6.40;99.90;;;;;;5063944;28;20028;-66
2020/12/05 11:46:33;;;;;;;4.53;2.50;;;6.20;99.90;;;;;;5072189;28;20032;-66
2020/12/05 11:48:59;;;;;;;8.07;2.97;;;6.10;99.90;;;;;;5077287;28;20551;-64
2020/12/05 11:51:28;;;;;;;9.02;2.58;;;6.00;99.90;;;;;;5075953;28;20028;-66
2020/12/05 11:53:54;;;;;;;3.53;2.15;;;6.00;99.90;;;;;;5074846;28;20016;-66
2020/12/05 11:56:21;;;;;;;5.75;2.50;;;6.10;99.90;;;;;;5073623;28;20025;-65
2020/12/05 11:58:47;;;;;;;5.60;2.85;;;6.40;99.90;;;;;;5074634;28;20025;-69
2020/12/05 12:01:13;;;;;;;6.47;2.65;;;6.70;99.90;;;;;;5080486;28;20017;-66
2020/12/05 12:03:38;;;;;;;4.20;2.22;;;6.80;99.90;;;;;;5042296;28;20036;-67
2020/12/05 12:06:13;;;;;;;5.25;2.55;;;7.10;99.90;;;;;;5081552;28;20048;-67
2020/12/05 12:08:39;;;;;;;6.13;3.35;;;7.40;99.90;;;;;;5062408;28;20025;-66
2020/12/05 12:11:04;;;;;;;4.35;2.63;;;7.40;99.90;;;;;;5070911;28;20060;-68
2020/12/05 12:13:30;;;;;;;5.68;2.55;;;7.50;99.90;;;;;;5065471;28;20052;-66
2020/12/05 12:15:55;;;;;;;3.20;2.28;;;7.50;99.90;;;;;;5081774;28;20035;-65
2020/12/05 12:18:21;;;;;;;2.92;2.15;;;7.90;99.90;;;;;;5086355;28;20044;-66
2020/12/05 12:20:46;;;;;;;7.43;2.38;;;8.10;99.90;;;;;;5079085;28;20020;-66
2020/12/05 12:23:12;;;;;;;4.63;2.63;;;8.10;99.90;;;;;;5067884;28;20032;-65
2020/12/05 12:25:37;;;;;;;6.63;2.40;;;8.40;99.90;;;;;;5062191;28;20064;-69
2020/12/05 12:28:03;;;;;;;4.30;2.13;;;8.20;99.90;;;;;;5059201;28;20024;-65
2020/12/05 12:30:29;;;;;;;5.57;2.17;;;8.10;99.90;;;;;;5075022;28;20063;-67
2020/12/05 12:32:54;;;;;;;3.00;2.03;;;8.00;99.90;;;;;;5089575;28;20033;-66
2020/12/05 12:35:20;;;;;;;4.97;2.63;;;8.10;99.90;;;;;;5089172;28;20039;-66
2020/12/05 12:37:45;;;;;;;5.75;2.13;;;8.30;99.90;;;;;;5077042;28;20056;-66
2020/12/05 12:40:11;;;;;;;3.40;2.38;;;8.30;99.90;;;;;;5065846;28;20115;-66
2020/12/05 12:42:36;;;;;;;3.75;1.98;;;7.80;99.90;;;;;;5076776;28;20033;-65
2020/12/05 12:45:03;;;;;;;8.18;2.40;;;7.70;99.90;;;;;;5071141;28;20115;-65
2020/12/05 12:49:57;;;;;;;3.63;2.53;;;6.80;99.90;;;;;;5053961;28;20029;-65
2020/12/05 12:52:23;;;;;;;3.47;2.35;;;6.50;99.90;;;;;;5068852;28;20025;-68
2020/12/05 12:54:48;;;;;;;2.88;2.15;;;6.40;99.90;;;;;;5072290;28;20028;-65